createdAt,value
2018-09-25T00:00:33.186Z,73.60
2018-09-25T00:03:06.886Z,73.90
2018-09-25T00:05:40.370Z,74.10
2018-09-25T00:08:14.390Z,74.20
2018-09-25T00:10:47.802Z,74.50
2018-09-25T00:13:21.111Z,74.50
2018-09-25T00:15:54.778Z,74.20
2018-09-25T00:18:28.364Z,73.90
2018-09-25T00:21:02.051Z,74.00
2018-09-25T00:23:35.903Z,73.90
2018-09-25T00:26:09.496Z,74.50
2018-09-25T00:28:42.993Z,73.90
2018-09-25T00:31:16.662Z,74.10
2018-09-25T00:33:50.340Z,74.30
2018-09-25T00:36:24.022Z,74.50
2018-09-25T00:38:58.021Z,74.20
2018-09-25T00:41:31.540Z,74.50
2018-09-25T00:44:04.960Z,74.60
2018-09-25T00:46:38.599Z,74.50
2018-09-25T00:49:12.387Z,74.60
2018-09-25T00:51:45.875Z,74.40
2018-09-25T00:54:19.474Z,74.40
2018-09-25T00:56:53.124Z,74.60
2018-09-25T00:59:26.531Z,74.70
2018-09-25T01:01:59.978Z,74.40
2018-09-25T01:04:33.566Z,74.50
2018-09-25T01:07:07.681Z,74.70
2018-09-25T01:09:41.316Z,75.30
2018-09-25T01:12:14.889Z,74.60
2018-09-25T01:14:48.480Z,74.50
2018-09-25T01:17:21.950Z,74.60
2018-09-25T01:19:55.955Z,74.50
2018-09-25T01:22:29.542Z,74.60
2018-09-25T01:25:03.097Z,74.60
2018-09-25T01:27:36.671Z,74.60
2018-09-25T01:30:10.455Z,74.70
2018-09-25T01:32:43.864Z,74.80
2018-09-25T01:35:17.166Z,74.60
2018-09-25T01:37:50.652Z,74.60
2018-09-25T01:40:24.064Z,74.60
2018-09-25T01:42:57.493Z,74.30
2018-09-25T01:45:30.992Z,74.40
2018-09-25T01:48:04.646Z,74.70
2018-09-25T01:50:38.460Z,74.90
2018-09-25T01:53:12.141Z,74.60
2018-09-25T01:55:45.622Z,74.60
2018-09-25T01:58:19.190Z,74.60
2018-09-25T02:00:52.566Z,74.60
2018-09-25T02:03:26.000Z,74.60
2018-09-25T02:05:59.855Z,74.80
2018-09-25T02:08:33.251Z,74.40
2018-09-25T02:11:06.943Z,74.60
2018-09-25T02:13:40.609Z,74.40
2018-09-25T02:16:14.230Z,74.60
2018-09-25T02:18:47.880Z,74.70
2018-09-25T02:21:21.504Z,74.90
2018-09-25T02:23:54.982Z,74.60
2018-09-25T02:26:28.503Z,74.70
2018-09-25T02:29:01.992Z,74.60
2018-09-25T02:31:35.678Z,74.60
2018-09-25T02:34:09.036Z,75.10
2018-09-25T02:36:42.537Z,74.70
2018-09-25T02:39:15.954Z,74.80
2018-09-25T02:41:49.655Z,75.50
2018-09-25T02:44:23.291Z,75.00
2018-09-25T02:46:56.911Z,74.90
2018-09-25T02:49:30.399Z,74.90
2018-09-25T02:52:04.067Z,75.00
2018-09-25T02:54:37.763Z,74.60
2018-09-25T02:57:11.403Z,74.90
2018-09-25T02:59:45.019Z,74.70
2018-09-25T03:02:18.518Z,75.00
2018-09-25T03:04:51.878Z,74.80
2018-09-25T03:07:25.456Z,75.00
2018-09-25T03:09:59.066Z,74.90
2018-09-25T03:12:32.508Z,74.90
2018-09-25T03:15:06.135Z,74.80
2018-09-25T03:17:39.703Z,74.90
2018-09-25T03:20:13.178Z,74.90
2018-09-25T03:22:46.563Z,75.00
2018-09-25T03:25:20.261Z,76.00
2018-09-25T03:27:53.845Z,75.90
2018-09-25T03:30:27.197Z,75.90
2018-09-25T03:33:00.856Z,75.80
2018-09-25T03:35:34.526Z,76.00
2018-09-25T03:38:08.028Z,75.90
2018-09-25T03:40:41.801Z,75.80
2018-09-25T03:43:15.344Z,75.80
2018-09-25T03:45:48.939Z,75.80
2018-09-25T03:48:22.410Z,75.80
2018-09-25T03:50:55.902Z,75.70
2018-09-25T03:53:29.316Z,75.80
2018-09-25T03:56:02.945Z,75.80
2018-09-25T03:58:36.584Z,75.70
2018-09-25T04:01:10.020Z,75.60
2018-09-25T04:03:43.475Z,75.70
2018-09-25T04:06:17.028Z,75.60
2018-09-25T04:08:50.396Z,75.50
2018-09-25T04:11:23.883Z,75.70
2018-09-25T04:13:57.386Z,75.80
2018-09-25T04:16:31.056Z,75.80
2018-09-25T04:19:04.634Z,75.90
2018-09-25T04:21:38.333Z,76.00
2018-09-25T04:24:11.804Z,76.00
2018-09-25T04:26:45.337Z,76.00
2018-09-25T04:29:18.802Z,76.40
2018-09-25T04:31:52.372Z,76.10
2018-09-25T04:34:25.825Z,76.10
2018-09-25T04:36:59.319Z,76.20
2018-09-25T04:39:32.953Z,76.10
2018-09-25T04:42:06.386Z,76.10
2018-09-25T04:44:39.985Z,76.10
2018-09-25T04:47:13.563Z,76.30
2018-09-25T04:49:47.248Z,76.10
2018-09-25T04:52:20.666Z,76.30
2018-09-25T04:54:54.368Z,76.20
2018-09-25T04:57:28.007Z,76.30
2018-09-25T05:00:01.506Z,76.10
2018-09-25T05:02:34.966Z,76.10
2018-09-25T05:05:08.503Z,76.10
2018-09-25T05:07:42.094Z,76.30
2018-09-25T05:10:15.566Z,76.10
2018-09-25T05:12:49.255Z,76.00
2018-09-25T05:15:22.900Z,75.90
2018-09-25T05:17:57.381Z,76.00
2018-09-25T05:20:30.864Z,75.80
2018-09-25T05:23:04.294Z,76.00
2018-09-25T05:25:37.711Z,75.90
2018-09-25T05:28:11.801Z,76.10
2018-09-25T05:30:45.439Z,76.10
2018-09-25T05:33:18.927Z,76.30
2018-09-25T05:35:52.462Z,76.20
2018-09-25T05:38:25.895Z,76.40
2018-09-25T05:40:59.650Z,76.40
2018-09-25T05:43:33.028Z,76.70
2018-09-25T05:46:06.594Z,76.60
2018-09-25T05:48:40.148Z,76.50
2018-09-25T05:51:13.543Z,76.80
2018-09-25T05:53:47.062Z,76.90
2018-09-25T05:56:20.789Z,76.60
2018-09-25T05:58:54.206Z,76.80
2018-09-25T06:01:27.854Z,76.70
2018-09-25T06:04:01.463Z,76.60
2018-09-25T06:06:35.123Z,76.90
2018-09-25T06:09:08.794Z,76.90
2018-09-25T06:11:42.825Z,77.40
2018-09-25T06:14:16.482Z,77.30
2018-09-25T06:16:49.986Z,77.80
2018-09-25T06:19:23.585Z,78.00
2018-09-25T06:21:57.124Z,78.50
2018-09-25T06:24:30.550Z,78.90
2018-09-25T06:27:04.017Z,79.30
2018-09-25T06:29:37.606Z,79.40
2018-09-25T06:32:11.061Z,79.70
2018-09-25T06:34:44.744Z,80.20
2018-09-25T06:37:18.287Z,80.20
2018-09-25T06:39:51.878Z,80.10
2018-09-25T06:42:25.333Z,80.20
2018-09-25T06:44:59.035Z,80.20
2018-09-25T06:47:32.711Z,79.90
2018-09-25T06:50:06.222Z,80.00
2018-09-25T06:52:39.880Z,80.40
2018-09-25T06:55:13.551Z,80.40
2018-09-25T06:57:47.200Z,80.90
2018-09-25T07:00:20.787Z,80.80
2018-09-25T07:02:54.392Z,80.70
2018-09-25T07:05:27.848Z,81.60
2018-09-25T07:08:01.521Z,81.60
2018-09-25T07:10:35.159Z,81.70
2018-09-25T07:13:09.167Z,81.20
2018-09-25T07:15:42.890Z,82.20
2018-09-25T07:18:16.485Z,81.70
2018-09-25T07:20:49.890Z,81.10
2018-09-25T07:23:23.602Z,80.90
2018-09-25T07:25:57.091Z,81.70
2018-09-25T07:28:30.502Z,81.80
2018-09-25T07:31:04.067Z,81.60
2018-09-25T07:33:37.766Z,81.90
2018-09-25T07:36:11.290Z,82.20
2018-09-25T07:38:44.866Z,82.70
2018-09-25T07:41:18.384Z,83.40
2018-09-25T07:43:51.819Z,83.20
2018-09-25T07:46:25.367Z,83.30
2018-09-25T07:48:58.942Z,83.70
2018-09-25T07:51:32.422Z,84.00
2018-09-25T07:54:05.875Z,84.50
2018-09-25T07:56:39.404Z,84.60
2018-09-25T07:59:12.938Z,84.60
2018-09-25T08:01:46.615Z,84.70
2018-09-25T08:04:20.162Z,85.50
2018-09-25T08:06:53.642Z,85.40
2018-09-25T08:09:27.308Z,84.60
2018-09-25T08:12:00.755Z,84.60
2018-09-25T08:14:34.889Z,85.20
2018-09-25T08:17:08.422Z,84.30
2018-09-25T08:19:42.030Z,84.40
2018-09-25T08:22:15.427Z,84.20
2018-09-25T08:24:49.047Z,83.60
2018-09-25T08:27:23.846Z,83.00
2018-09-25T08:29:57.515Z,82.60
2018-09-25T08:32:31.194Z,81.40
2018-09-25T08:35:04.901Z,81.70
2018-09-25T08:37:38.371Z,80.80
2018-09-25T08:40:12.446Z,80.30
2018-09-25T08:42:45.909Z,80.50
2018-09-25T08:45:19.451Z,79.30
2018-09-25T08:47:52.924Z,78.80
2018-09-25T08:50:26.455Z,78.60
2018-09-25T08:52:59.871Z,78.00
2018-09-25T08:55:33.370Z,76.40
2018-09-25T08:58:06.723Z,75.80
2018-09-25T09:00:40.767Z,75.90
2018-09-25T09:03:14.255Z,75.40
2018-09-25T09:05:47.924Z,75.30
2018-09-25T09:08:21.542Z,75.10
2018-09-25T09:10:55.078Z,73.70
2018-09-25T09:13:28.615Z,74.00
2018-09-25T09:16:03.581Z,73.10
2018-09-25T09:18:37.149Z,73.30
2018-09-25T09:21:10.812Z,74.00
2018-09-25T09:23:44.285Z,72.30
2018-09-25T09:26:17.956Z,70.70
2018-09-25T09:28:51.439Z,72.10
2018-09-25T09:31:24.910Z,70.90
2018-09-25T09:33:58.555Z,70.80
2018-09-25T09:36:32.235Z,70.10
2018-09-25T09:39:05.959Z,70.80
2018-09-25T09:41:39.771Z,71.00
2018-09-25T09:44:13.162Z,69.80
2018-09-25T09:46:46.667Z,69.10
2018-09-25T09:49:20.147Z,68.80
2018-09-25T09:51:53.588Z,69.90
2018-09-25T09:54:26.998Z,70.00
2018-09-25T09:57:00.575Z,68.30
2018-09-25T09:59:34.147Z,68.10
2018-09-25T10:02:07.544Z,67.10
2018-09-25T10:04:41.067Z,66.70
2018-09-25T10:07:14.518Z,66.10
2018-09-25T10:09:48.132Z,65.80
2018-09-25T10:12:21.703Z,66.00
2018-09-25T10:14:55.113Z,66.00
2018-09-25T10:17:28.623Z,65.40
2018-09-25T10:20:01.957Z,65.60
2018-09-25T10:22:35.594Z,64.50
2018-09-25T10:25:09.165Z,65.30
2018-09-25T10:27:44.942Z,64.70
2018-09-25T10:30:18.481Z,64.60
2018-09-25T10:32:51.941Z,64.30
2018-09-25T10:35:25.550Z,64.00
2018-09-25T10:37:59.492Z,62.50
2018-09-25T10:40:33.419Z,63.20
2018-09-25T10:43:06.919Z,63.30
2018-09-25T10:45:40.552Z,62.50
2018-09-25T10:48:13.894Z,63.10
2018-09-25T10:50:47.374Z,63.90
2018-09-25T10:53:21.035Z,62.60
2018-09-25T10:55:54.561Z,63.40
2018-09-25T10:58:28.178Z,64.00
2018-09-25T11:01:01.839Z,63.50
2018-09-25T11:03:35.426Z,61.50
2018-09-25T11:06:09.026Z,62.30
2018-09-25T11:08:42.613Z,63.50
2018-09-25T11:11:17.037Z,62.40
2018-09-25T11:13:53.310Z,61.80
2018-09-25T11:16:26.923Z,61.00
2018-09-25T11:19:00.540Z,60.20
2018-09-25T11:21:34.208Z,60.90
2018-09-25T11:24:07.673Z,61.60
2018-09-25T11:26:41.373Z,61.60
2018-09-25T11:29:14.859Z,59.60
2018-09-25T11:31:48.727Z,60.00
2018-09-25T11:34:22.466Z,59.90
2018-09-25T11:36:56.007Z,59.10
2018-09-25T11:39:29.440Z,58.90
2018-09-25T11:42:02.946Z,59.40
2018-09-25T11:44:36.518Z,59.70
2018-09-25T11:47:10.245Z,59.30
2018-09-25T11:49:43.742Z,59.30
2018-09-25T11:52:17.439Z,59.30
2018-09-25T11:54:51.066Z,59.20
2018-09-25T11:57:24.599Z,58.80
2018-09-25T11:59:58.167Z,59.00
2018-09-25T12:02:31.727Z,57.80
2018-09-25T12:05:05.224Z,58.30
2018-09-25T12:07:38.684Z,57.80
2018-09-25T12:10:12.372Z,58.10
2018-09-25T12:12:45.926Z,58.10
2018-09-25T12:15:19.356Z,57.90
2018-09-25T12:17:53.027Z,56.60
2018-09-25T12:20:26.572Z,57.10
2018-09-25T12:23:00.007Z,56.90
2018-09-25T12:25:33.638Z,57.20
2018-09-25T12:28:07.182Z,57.60
2018-09-25T12:30:40.559Z,56.70
2018-09-25T12:33:14.273Z,56.10
2018-09-25T12:35:47.772Z,56.60
2018-09-25T12:38:21.251Z,56.30
2018-09-25T12:40:54.696Z,56.60
2018-09-25T12:43:28.231Z,56.10
2018-09-25T12:46:01.808Z,56.00
2018-09-25T12:48:35.235Z,55.70
2018-09-25T12:51:08.937Z,55.10
2018-09-25T12:53:42.523Z,55.10
2018-09-25T12:56:15.903Z,54.90
2018-09-25T12:58:49.603Z,54.90
2018-09-25T13:01:23.281Z,54.90
2018-09-25T13:03:57.048Z,54.90
2018-09-25T13:06:30.772Z,54.90
2018-09-25T13:09:04.385Z,54.90
2018-09-25T13:11:38.043Z,55.00
2018-09-25T13:14:11.792Z,55.50
2018-09-25T13:16:45.380Z,55.70
2018-09-25T13:19:19.064Z,55.80
2018-09-25T13:21:52.558Z,55.30
2018-09-25T13:24:26.063Z,55.60
2018-09-25T13:26:59.672Z,55.30
2018-09-25T13:29:33.237Z,55.70
2018-09-25T13:32:06.734Z,55.00
2018-09-25T13:34:40.371Z,54.50
2018-09-25T13:37:13.877Z,54.80
2018-09-25T13:39:47.454Z,55.20
2018-09-25T13:42:21.002Z,55.10
2018-09-25T13:44:54.686Z,55.50
2018-09-25T13:47:28.760Z,54.80
2018-09-25T13:50:02.263Z,55.00
2018-09-25T13:52:36.425Z,55.00
2018-09-25T13:55:09.848Z,55.40
2018-09-25T13:57:43.264Z,55.30
2018-09-25T14:00:16.920Z,55.20
2018-09-25T14:02:50.590Z,55.40
2018-09-25T14:05:24.196Z,55.70
2018-09-25T14:07:58.011Z,54.80
2018-09-25T14:10:31.583Z,54.40
2018-09-25T14:13:04.967Z,53.90
2018-09-25T14:15:38.592Z,54.60
2018-09-25T14:18:12.027Z,52.30
2018-09-25T14:20:45.623Z,53.90
2018-09-25T14:23:18.985Z,54.00
2018-09-25T14:25:52.654Z,52.50
2018-09-25T14:28:25.956Z,53.40
2018-09-25T14:30:59.419Z,53.50
2018-09-25T14:33:32.846Z,53.30
2018-09-25T14:36:06.398Z,52.50
2018-09-25T14:38:40.103Z,52.50
2018-09-25T14:41:13.570Z,53.20
2018-09-25T14:43:47.127Z,52.90
2018-09-25T14:46:20.902Z,52.60
2018-09-25T14:48:54.640Z,52.80
2018-09-25T14:51:28.150Z,52.40
2018-09-25T14:54:01.691Z,52.10
2018-09-25T14:56:35.116Z,52.20
2018-09-25T14:59:08.730Z,52.70
2018-09-25T15:01:42.250Z,52.90
2018-09-25T15:04:15.759Z,52.30
2018-09-25T15:06:49.121Z,52.40
2018-09-25T15:09:22.809Z,51.90
2018-09-25T15:11:56.279Z,52.70
2018-09-25T15:14:29.865Z,52.30
2018-09-25T15:17:03.548Z,53.20
2018-09-25T15:19:37.068Z,52.30
2018-09-25T15:22:10.772Z,52.50
2018-09-25T15:24:43.989Z,52.30
2018-09-25T15:27:17.628Z,52.70
2018-09-25T15:29:51.081Z,52.90
2018-09-25T15:32:24.645Z,53.50
2018-09-25T15:34:58.325Z,53.60
2018-09-25T15:37:31.783Z,52.50
2018-09-25T15:40:05.495Z,52.70
2018-09-25T15:42:39.000Z,53.10
2018-09-25T15:45:12.712Z,52.90
2018-09-25T15:47:46.308Z,52.90
2018-09-25T15:50:19.918Z,52.50
2018-09-25T15:52:53.498Z,52.00
2018-09-25T15:55:26.993Z,52.70
2018-09-25T15:58:09.291Z,53.10
2018-09-25T16:00:42.825Z,52.70
2018-09-25T16:03:16.357Z,53.40
2018-09-25T16:05:50.115Z,53.10
2018-09-25T16:08:23.689Z,53.00
2018-09-25T16:10:57.313Z,52.90
2018-09-25T16:13:30.874Z,52.70
2018-09-25T16:16:04.634Z,52.90
2018-09-25T16:18:38.256Z,53.10
2018-09-25T16:21:11.810Z,52.50
2018-09-25T16:23:45.512Z,53.20
2018-09-25T16:26:19.026Z,53.40
2018-09-25T16:28:52.454Z,52.90
2018-09-25T16:31:26.078Z,53.50
2018-09-25T16:33:59.694Z,53.80
2018-09-25T16:36:33.278Z,53.70
2018-09-25T16:39:06.663Z,53.20
2018-09-25T16:41:40.204Z,53.30
2018-09-25T16:44:13.635Z,53.60
2018-09-25T16:46:47.001Z,53.60
2018-09-25T16:49:20.652Z,53.70
2018-09-25T16:51:54.110Z,53.60
2018-09-25T16:54:27.647Z,54.10
2018-09-25T16:57:01.331Z,54.20
2018-09-25T16:59:35.016Z,54.00
2018-09-25T17:02:08.733Z,54.20
2018-09-25T17:04:42.391Z,54.20
2018-09-25T17:07:15.994Z,54.60
2018-09-25T17:09:49.669Z,54.40
2018-09-25T17:12:23.350Z,54.80
2018-09-25T17:14:57.008Z,55.10
2018-09-25T17:17:30.516Z,55.60
2018-09-25T17:20:04.146Z,55.90
2018-09-25T17:22:37.643Z,56.30
2018-09-25T17:25:11.332Z,57.20
2018-09-25T17:27:44.835Z,56.90
2018-09-25T17:30:18.485Z,57.20
2018-09-25T17:32:52.137Z,57.30
2018-09-25T17:35:25.738Z,57.50
2018-09-25T17:37:59.187Z,57.90
2018-09-25T17:40:32.825Z,58.20
2018-09-25T17:43:06.382Z,58.30
2018-09-25T17:45:39.756Z,58.60
2018-09-25T17:48:13.385Z,58.80
2018-09-25T17:50:46.845Z,59.40
2018-09-25T17:53:20.423Z,59.50
2018-09-25T17:55:53.883Z,59.50
2018-09-25T17:58:27.676Z,59.60
2018-09-25T18:01:01.206Z,59.60
2018-09-25T18:03:35.727Z,59.90
2018-09-25T18:06:09.319Z,59.70
2018-09-25T18:08:42.952Z,59.90
2018-09-25T18:11:16.375Z,60.00
2018-09-25T18:13:50.257Z,60.40
2018-09-25T18:16:23.958Z,60.40
2018-09-25T18:18:59.633Z,60.60
2018-09-25T18:21:34.122Z,60.70
2018-09-25T18:24:07.607Z,61.00
2018-09-25T18:26:41.454Z,61.20
2018-09-25T18:29:15.169Z,61.30
2018-09-25T18:31:49.045Z,61.50
2018-09-25T18:34:22.691Z,61.70
2018-09-25T18:36:56.303Z,61.80
2018-09-25T18:39:29.938Z,62.60
2018-09-25T18:42:03.732Z,62.20
2018-09-25T18:44:38.444Z,62.20
2018-09-25T18:47:12.811Z,62.10
2018-09-25T18:49:46.759Z,62.60
2018-09-25T18:52:20.224Z,62.40
2018-09-25T18:54:55.345Z,62.70
2018-09-25T18:57:28.883Z,62.80
2018-09-25T19:00:03.090Z,63.00
2018-09-25T19:02:36.689Z,63.00
2018-09-25T19:05:10.377Z,63.20
2018-09-25T19:07:43.743Z,63.20
2018-09-25T19:10:17.119Z,63.00
2018-09-25T19:12:50.562Z,63.30
2018-09-25T19:15:24.127Z,63.60
2018-09-25T19:17:57.668Z,63.80
2018-09-25T19:20:31.373Z,63.80
2018-09-25T19:23:04.844Z,64.10
2018-09-25T19:25:38.588Z,64.70
2018-09-25T19:28:12.277Z,64.00
2018-09-25T19:30:45.691Z,65.70
2018-09-25T19:33:19.296Z,65.60
2018-09-25T19:35:52.897Z,65.40
2018-09-25T19:38:26.299Z,65.20
2018-09-25T19:40:59.941Z,65.00
2018-09-25T19:43:33.584Z,65.00
2018-09-25T19:46:07.157Z,65.00
2018-09-25T19:48:40.848Z,65.10
2018-09-25T19:51:14.264Z,65.10
2018-09-25T19:53:47.899Z,65.20
2018-09-25T19:56:21.531Z,65.10
2018-09-25T19:58:55.083Z,65.10
2018-09-25T20:01:29.088Z,65.10
2018-09-25T20:04:02.666Z,65.30
2018-09-25T20:06:36.234Z,65.30
2018-09-25T20:09:11.265Z,65.20
2018-09-25T20:11:44.776Z,65.30
2018-09-25T20:14:18.235Z,65.10
2018-09-25T20:16:51.734Z,65.20
2018-09-25T20:19:25.489Z,65.20
2018-09-25T20:21:58.834Z,65.30
2018-09-25T20:24:32.226Z,65.30
2018-09-25T20:27:06.015Z,65.20
2018-09-25T20:29:39.688Z,65.20
2018-09-25T20:32:13.027Z,65.10
2018-09-25T20:34:46.739Z,65.00
2018-09-25T20:37:20.333Z,65.40
2018-09-25T20:39:53.731Z,65.20
2018-09-25T20:42:27.535Z,65.40
2018-09-25T20:45:01.020Z,65.40
2018-09-25T20:47:34.622Z,65.30
2018-09-25T20:50:08.278Z,65.40
2018-09-25T20:52:41.794Z,65.60
2018-09-25T20:55:15.332Z,65.80
2018-09-25T20:57:48.859Z,65.50
2018-09-25T21:00:22.428Z,65.30
2018-09-25T21:02:55.876Z,65.50
2018-09-25T21:05:29.491Z,65.40
2018-09-25T21:08:02.915Z,65.70
2018-09-25T21:10:36.403Z,65.70
2018-09-25T21:13:10.026Z,65.80
2018-09-25T21:15:44.584Z,65.80
2018-09-25T21:18:18.118Z,65.50
2018-09-25T21:20:51.630Z,65.80
2018-09-25T21:23:25.294Z,65.70
2018-09-25T21:25:58.660Z,65.90
2018-09-25T21:28:32.396Z,66.00
2018-09-25T21:31:06.021Z,66.20
2018-09-25T21:33:39.764Z,65.90
2018-09-25T21:36:13.907Z,66.10
2018-09-25T21:38:47.702Z,66.20
2018-09-25T21:41:21.091Z,66.20
2018-09-25T21:43:54.575Z,66.20
2018-09-25T21:46:28.036Z,66.30
2018-09-25T21:49:01.566Z,66.40
2018-09-25T21:51:35.009Z,66.60
2018-09-25T21:54:08.550Z,66.50
2018-09-25T21:56:42.134Z,66.50
2018-09-25T21:59:15.485Z,66.70
2018-09-25T22:01:49.146Z,66.80
2018-09-25T22:04:22.576Z,66.50
2018-09-25T22:06:56.129Z,66.70
2018-09-25T22:09:29.770Z,66.80
2018-09-25T22:12:03.146Z,67.00
2018-09-25T22:14:36.614Z,67.00
2018-09-25T22:17:09.972Z,67.00
2018-09-25T22:19:43.380Z,67.00
2018-09-25T22:22:16.954Z,67.10
2018-09-25T22:24:50.521Z,67.20
2018-09-25T22:27:24.243Z,67.10
2018-09-25T22:29:57.828Z,67.80
2018-09-25T22:32:31.390Z,67.00
2018-09-25T22:35:05.009Z,67.10
2018-09-25T22:37:38.656Z,67.00
2018-09-25T22:40:12.286Z,67.10
2018-09-25T22:42:45.883Z,67.10
2018-09-25T22:45:19.362Z,67.00
2018-09-25T22:47:52.855Z,67.20
2018-09-25T22:50:26.463Z,67.20
2018-09-25T22:53:00.133Z,67.30
2018-09-25T22:55:33.765Z,67.30
2018-09-25T22:58:07.367Z,67.10
2018-09-25T23:00:40.918Z,67.30
2018-09-25T23:03:14.265Z,67.30
2018-09-25T23:05:47.825Z,67.40
2018-09-25T23:08:21.285Z,67.40
2018-09-25T23:10:54.937Z,67.50
2018-09-25T23:13:28.371Z,67.80
2018-09-25T23:16:01.882Z,67.80
2018-09-25T23:18:35.461Z,67.90
2018-09-25T23:21:09.290Z,67.80
2018-09-25T23:23:42.886Z,68.00
2018-09-25T23:26:16.490Z,67.80
2018-09-25T23:28:50.113Z,67.80
2018-09-25T23:31:23.748Z,67.90
2018-09-25T23:33:57.351Z,69.40
2018-09-25T23:36:30.977Z,69.40
2018-09-25T23:39:04.178Z,70.40
2018-09-25T23:41:37.567Z,70.20
2018-09-25T23:44:44.450Z,69.90
2018-09-25T23:48:20.988Z,69.50
2018-09-25T23:50:57.315Z,69.00
2018-09-25T23:53:30.851Z,68.70
2018-09-25T23:56:04.846Z,68.40
2018-09-25T23:58:38.441Z,68.60
